createdAt,value
2022-11-04T00:00:03.885Z,50.877167
2022-11-04T00:01:03.863Z,50.877155
2022-11-04T00:02:03.839Z,50.877201
2022-11-04T00:03:03.790Z,50.877155
2022-11-04T00:04:03.742Z,50.877201
2022-11-04T00:05:03.743Z,50.877159
2022-11-04T00:06:03.743Z,50.877167
2022-11-04T00:07:03.713Z,50.877182
2022-11-04T00:08:03.708Z,50.877197
2022-11-04T00:09:03.687Z,50.877174
2022-11-04T00:10:03.793Z,50.877254
2022-11-04T00:11:03.675Z,50.877274
2022-11-04T00:12:03.763Z,50.877262
2022-11-04T00:13:03.726Z,50.877312
2022-11-04T00:14:03.937Z,50.877239
2022-11-04T00:15:03.788Z,50.877262
2022-11-04T00:16:03.636Z,50.877254
2022-11-04T00:17:03.612Z,50.877289
2022-11-04T00:18:03.628Z,50.877281
2022-11-04T00:19:03.656Z,50.877258
2022-11-04T00:20:03.762Z,50.877190
2022-11-04T00:21:03.577Z,50.877197
2022-11-04T00:22:03.586Z,50.877209
2022-11-04T00:23:03.584Z,50.877182
2022-11-04T00:24:03.551Z,50.877190
2022-11-04T00:25:03.563Z,50.877209
2022-11-04T00:26:03.563Z,50.877220
2022-11-04T00:27:03.515Z,50.877205
2022-11-04T00:28:03.555Z,50.877213
2022-11-04T00:29:03.489Z,50.877197
2022-11-04T00:30:03.615Z,50.877205
2022-11-04T00:31:03.477Z,50.877209
2022-11-04T00:32:03.566Z,50.877190
2022-11-04T00:33:03.496Z,50.877174
2022-11-04T00:34:03.460Z,50.877213
2022-11-04T00:35:03.432Z,50.877190
2022-11-04T00:36:03.508Z,50.877190
2022-11-04T00:37:03.438Z,50.877167
2022-11-04T00:38:03.413Z,50.877186
2022-11-04T00:39:03.409Z,50.877151
2022-11-04T00:40:03.380Z,50.877197
2022-11-04T00:41:03.366Z,50.877186
2022-11-04T00:42:03.381Z,50.877216
2022-11-04T00:43:03.358Z,50.877213
2022-11-04T00:44:03.415Z,50.877213
2022-11-04T00:45:03.330Z,50.877220
2022-11-04T00:46:03.322Z,50.877171
2022-11-04T00:47:03.351Z,50.877197
2022-11-04T00:48:03.316Z,50.877186
2022-11-04T00:49:03.316Z,50.877201
2022-11-04T00:50:03.296Z,50.877220
2022-11-04T00:51:03.324Z,50.877247
2022-11-04T00:52:03.331Z,50.877209
2022-11-04T00:53:03.266Z,50.877228
2022-11-04T00:54:03.247Z,50.877228
2022-11-04T00:55:03.236Z,50.877232
2022-11-04T00:56:03.246Z,50.877224
2022-11-04T00:57:03.246Z,50.877239
2022-11-04T00:58:03.224Z,50.877178
2022-11-04T00:59:03.216Z,50.877190
2022-11-04T01:00:03.190Z,50.877125
2022-11-04T01:01:03.251Z,50.877117
2022-11-04T01:02:03.352Z,50.877121
2022-11-04T01:03:03.238Z,50.877163
2022-11-04T01:04:03.155Z,50.877190
2022-11-04T01:05:03.129Z,50.877163
2022-11-04T01:06:03.286Z,50.877216
2022-11-04T01:07:03.139Z,50.877178
2022-11-04T01:08:03.165Z,50.877193
2022-11-04T01:09:03.110Z,50.877102
2022-11-04T01:10:03.103Z,50.877209
2022-11-04T01:11:03.073Z,50.877220
2022-11-04T01:12:03.087Z,50.877193
2022-11-04T01:13:03.072Z,50.877171
2022-11-04T01:14:03.101Z,50.877201
2022-11-04T01:15:03.095Z,50.877197
2022-11-04T01:16:03.030Z,50.877205
2022-11-04T01:17:03.021Z,50.877235
2022-11-04T01:18:03.033Z,50.877224
2022-11-04T01:19:02.999Z,50.877216
2022-11-04T01:20:03.087Z,50.877235
2022-11-04T01:21:02.977Z,50.877213
2022-11-04T01:22:02.995Z,50.877228
2022-11-04T01:23:02.970Z,50.877216
2022-11-04T01:24:03.013Z,50.877209
2022-11-04T01:25:02.988Z,50.877216
2022-11-04T01:26:02.933Z,50.877235
2022-11-04T01:27:02.935Z,50.877247
2022-11-04T01:28:02.905Z,50.877232
2022-11-04T01:29:02.917Z,50.877239
2022-11-04T01:30:02.941Z,50.877220
2022-11-04T01:31:02.880Z,50.877235
2022-11-04T01:32:02.885Z,50.877228
2022-11-04T01:33:02.857Z,50.877243
2022-11-04T01:34:02.848Z,50.877235
2022-11-04T01:35:02.843Z,50.877209
2022-11-04T01:36:02.827Z,50.877220
2022-11-04T01:37:02.853Z,50.877224
2022-11-04T01:38:02.813Z,50.877209
2022-11-04T01:39:02.842Z,50.877224
2022-11-04T01:40:02.793Z,50.877224
2022-11-04T01:41:02.804Z,50.877228
2022-11-04T01:43:02.779Z,50.877197
2022-11-04T01:44:02.763Z,50.877182
2022-11-04T01:45:02.733Z,50.877193
2022-11-04T01:46:02.723Z,50.877182
2022-11-04T01:47:02.724Z,50.877171
2022-11-04T01:48:02.729Z,50.877205
2022-11-04T01:49:02.723Z,50.877193
2022-11-04T01:50:02.685Z,50.877213
2022-11-04T01:51:02.666Z,50.877205
2022-11-04T01:52:02.687Z,50.877201
2022-11-04T01:53:02.657Z,50.877209
2022-11-04T01:54:02.665Z,50.877186
2022-11-04T01:55:02.673Z,50.877178
2022-11-04T01:56:02.646Z,50.877216
2022-11-04T01:57:02.622Z,50.877201
2022-11-04T01:58:02.602Z,50.877209
2022-11-04T01:59:02.596Z,50.877216
2022-11-04T02:00:02.599Z,50.877235
2022-11-04T02:01:02.695Z,50.877216
2022-11-04T02:02:02.660Z,50.877205
2022-11-04T02:03:02.568Z,50.877209
2022-11-04T02:04:02.551Z,50.877197
2022-11-04T02:05:02.543Z,50.877171
2022-11-04T02:06:02.573Z,50.877159
2022-11-04T02:07:02.555Z,50.877190
2022-11-04T02:08:02.553Z,50.877232
2022-11-04T02:09:02.528Z,50.877243
2022-11-04T02:10:02.489Z,50.877258
2022-11-04T02:11:02.483Z,50.877209
2022-11-04T02:12:02.555Z,50.877193
2022-11-04T02:13:02.454Z,50.877178
2022-11-04T02:14:02.439Z,50.877205
2022-11-04T02:15:02.479Z,50.877201
2022-11-04T02:16:02.450Z,50.877232
2022-11-04T02:17:02.545Z,50.877251
2022-11-04T02:18:02.478Z,50.877220
2022-11-04T02:19:02.392Z,50.877167
2022-11-04T02:20:02.395Z,50.877178
2022-11-04T02:21:02.384Z,50.877220
2022-11-04T02:22:02.372Z,50.877209
2022-11-04T02:23:02.375Z,50.877182
2022-11-04T02:24:02.345Z,50.877197
2022-11-04T02:25:02.352Z,50.877174
2022-11-04T02:26:02.323Z,50.877155
2022-11-04T02:27:02.308Z,50.877167
2022-11-04T02:28:02.331Z,50.877190
2022-11-04T02:29:02.321Z,50.877159
2022-11-04T02:30:02.283Z,50.877209
2022-11-04T02:31:34.174Z,50.877186
2022-11-04T02:32:02.247Z,50.877178
2022-11-04T02:33:02.233Z,50.877167
2022-11-04T02:34:02.251Z,50.877102
2022-11-04T02:35:02.273Z,50.877113
2022-11-04T02:36:02.228Z,50.877155
2022-11-04T02:37:02.206Z,50.877163
2022-11-04T02:38:02.203Z,50.877171
2022-11-04T02:39:02.186Z,50.877163
2022-11-04T02:40:02.195Z,50.877178
2022-11-04T02:41:02.280Z,50.877174
2022-11-04T02:42:02.176Z,50.877167
2022-11-04T02:43:02.164Z,50.877174
2022-11-04T02:44:02.139Z,50.877193
2022-11-04T02:45:02.154Z,50.877186
2022-11-04T02:46:02.134Z,50.877174
2022-11-04T02:47:02.130Z,50.877182
2022-11-04T02:48:02.106Z,50.877167
2022-11-04T02:49:02.087Z,50.877167
2022-11-04T02:50:02.094Z,50.877159
2022-11-04T02:51:02.065Z,50.877148
2022-11-04T02:52:02.076Z,50.877167
2022-11-04T02:53:02.042Z,50.877148
2022-11-04T02:54:02.049Z,50.877129
2022-11-04T02:55:02.025Z,50.877140
2022-11-04T02:56:02.100Z,50.877159
2022-11-04T02:57:02.005Z,50.877171
2022-11-04T02:58:02.020Z,50.877174
2022-11-04T02:59:02.003Z,50.877174
2022-11-04T03:00:01.974Z,50.877190
2022-11-04T03:01:02.040Z,50.877216
2022-11-04T03:02:02.026Z,50.877205
2022-11-04T03:03:02.001Z,50.877205
2022-11-04T03:04:01.994Z,50.877186
2022-11-04T03:05:01.923Z,50.877201
2022-11-04T03:06:01.919Z,50.877193
2022-11-04T03:07:02.044Z,50.877186
2022-11-04T03:08:01.892Z,50.877178
2022-11-04T03:09:01.905Z,50.877171
2022-11-04T03:10:01.891Z,50.877178
2022-11-04T03:11:01.861Z,50.877178
2022-11-04T03:12:01.866Z,50.877174
2022-11-04T03:13:01.846Z,50.877144
2022-11-04T03:14:01.837Z,50.877151
2022-11-04T03:15:01.857Z,50.877144
2022-11-04T03:16:01.824Z,50.877148
2022-11-04T03:17:01.810Z,50.877163
2022-11-04T03:18:01.826Z,50.877190
2022-11-04T03:19:01.788Z,50.877163
2022-11-04T03:20:01.777Z,50.877163
2022-11-04T03:21:01.784Z,50.877190
2022-11-04T03:22:01.743Z,50.877190
2022-11-04T03:23:01.738Z,50.877178
2022-11-04T03:24:01.740Z,50.877144
2022-11-04T03:25:01.748Z,50.877171
2022-11-04T03:26:01.712Z,50.877174
2022-11-04T03:27:01.696Z,50.877171
2022-11-04T03:28:01.714Z,50.877136
2022-11-04T03:29:01.684Z,50.877117
2022-11-04T03:30:01.731Z,50.877178
2022-11-04T03:31:01.658Z,50.877159
2022-11-04T03:32:01.744Z,50.877186
2022-11-04T03:33:01.633Z,50.877163
2022-11-04T03:34:01.637Z,50.877155
2022-11-04T03:35:01.644Z,50.877148
2022-11-04T03:36:01.599Z,50.877136
2022-11-04T03:37:01.594Z,50.877159
2022-11-04T03:38:01.589Z,50.877178
2022-11-04T03:39:01.596Z,50.877201
2022-11-04T03:40:01.578Z,50.877174
2022-11-04T03:41:01.585Z,50.877190
2022-11-04T03:42:01.559Z,50.877193
2022-11-04T03:43:01.569Z,50.877205
2022-11-04T03:44:01.535Z,50.877174
2022-11-04T03:45:01.562Z,50.877174
2022-11-04T03:46:01.505Z,50.877163
2022-11-04T03:47:01.510Z,50.877186
2022-11-04T03:48:01.515Z,50.877174
2022-11-04T03:49:01.506Z,50.877190
2022-11-04T03:50:01.524Z,50.877155
2022-11-04T03:51:01.483Z,50.877178
2022-11-04T03:52:01.518Z,50.877224
2022-11-04T03:53:01.447Z,50.877148
2022-11-04T03:54:01.498Z,50.877140
2022-11-04T03:55:01.439Z,50.877232
2022-11-04T03:56:01.418Z,50.877209
2022-11-04T03:57:01.405Z,50.877232
2022-11-04T03:58:01.396Z,50.877174
2022-11-04T03:59:01.405Z,50.877186
2022-11-04T04:00:01.428Z,50.877174
2022-11-04T04:01:01.417Z,50.877136
2022-11-04T04:02:01.433Z,50.877182
2022-11-04T04:03:01.380Z,50.877186
2022-11-04T04:04:01.385Z,50.877193
2022-11-04T04:05:01.320Z,50.877197
2022-11-04T04:06:01.314Z,50.877193
2022-11-04T04:07:01.302Z,50.877186
2022-11-04T04:08:01.317Z,50.877163
2022-11-04T04:09:01.288Z,50.877148
2022-11-04T04:10:01.300Z,50.877174
2022-11-04T04:11:01.304Z,50.877197
2022-11-04T04:12:01.257Z,50.877174
2022-11-04T04:13:01.275Z,50.877171
2022-11-04T04:14:01.233Z,50.877182
2022-11-04T04:15:01.229Z,50.877186
2022-11-04T04:16:01.244Z,50.877167
2022-11-04T04:17:01.239Z,50.877174
2022-11-04T04:18:01.200Z,50.877171
2022-11-04T04:19:01.194Z,50.877174
2022-11-04T04:20:01.174Z,50.877171
2022-11-04T04:21:01.167Z,50.877171
2022-11-04T04:22:01.170Z,50.877171
2022-11-04T04:23:01.168Z,50.877174
2022-11-04T04:24:01.177Z,50.877174
2022-11-04T04:25:01.137Z,50.877159
2022-11-04T04:26:01.123Z,50.877167
2022-11-04T04:27:01.098Z,50.877186
2022-11-04T04:28:01.097Z,50.877186
2022-11-04T04:29:01.084Z,50.877182
2022-11-04T04:30:01.093Z,50.877190
2022-11-04T04:31:01.112Z,50.877201
2022-11-04T04:32:01.106Z,50.877178
2022-11-04T04:33:01.063Z,50.877159
2022-11-04T04:34:01.040Z,50.877201
2022-11-04T04:35:01.045Z,50.877159
2022-11-04T04:36:01.059Z,50.877174
2022-11-04T04:37:01.003Z,50.877193
2022-11-04T04:38:00.996Z,50.877201
2022-11-04T04:39:00.989Z,50.877213
2022-11-04T04:40:01.002Z,50.877197
2022-11-04T04:41:01.003Z,50.877193
2022-11-04T04:42:01.020Z,50.877190
2022-11-04T04:43:00.939Z,50.877197
2022-11-04T04:44:00.938Z,50.877197
2022-11-04T04:45:00.909Z,50.877190
2022-11-04T04:46:00.979Z,50.877216
2022-11-04T04:47:01.954Z,50.877220
2022-11-04T04:48:00.900Z,50.877216
2022-11-04T04:49:00.888Z,50.877125
2022-11-04T04:50:00.882Z,50.877136
2022-11-04T04:51:00.872Z,50.877178
2022-11-04T04:52:00.870Z,50.877201
2022-11-04T04:53:00.864Z,50.877209
2022-11-04T04:54:00.833Z,50.877190
2022-11-04T04:55:00.821Z,50.877193
2022-11-04T04:56:00.839Z,50.877178
2022-11-04T04:57:00.809Z,50.877178
2022-11-04T04:58:00.773Z,50.877220
2022-11-04T04:59:00.788Z,50.877197
2022-11-04T05:00:00.790Z,50.877190
2022-11-04T05:01:00.845Z,50.877216
2022-11-04T05:02:00.880Z,50.877182
2022-11-04T05:03:00.744Z,50.877151
2022-11-04T05:04:00.725Z,50.877136
2022-11-04T05:05:00.771Z,50.877182
2022-11-04T05:06:00.732Z,50.877193
2022-11-04T05:07:00.715Z,50.877171
2022-11-04T05:08:00.690Z,50.877209
2022-11-04T05:09:00.690Z,50.877235
2022-11-04T05:10:00.680Z,50.877228
2022-11-04T05:11:00.660Z,50.877129
2022-11-04T05:12:00.674Z,50.877151
2022-11-04T05:13:00.665Z,50.877190
2022-11-04T05:14:00.633Z,50.877193
2022-11-04T05:15:00.608Z,50.877193
2022-11-04T05:16:01.627Z,50.877155
2022-11-04T05:17:00.633Z,50.877163
2022-11-04T05:18:00.623Z,50.877125
2022-11-04T05:19:00.613Z,50.877159
2022-11-04T05:20:00.578Z,50.877151
2022-11-04T05:21:00.595Z,50.877151
2022-11-04T05:22:00.596Z,50.877174
2022-11-04T05:23:00.557Z,50.877174
2022-11-04T05:24:00.530Z,50.877132
2022-11-04T05:25:00.526Z,50.877132
2022-11-04T05:26:00.541Z,50.877163
2022-11-04T05:27:00.509Z,50.877148
2022-11-04T05:28:00.529Z,50.877102
2022-11-04T05:29:00.585Z,50.877167
2022-11-04T05:30:00.509Z,50.877235
2022-11-04T05:31:00.471Z,50.877239
2022-11-04T05:32:00.463Z,50.877228
2022-11-04T05:33:04.631Z,50.877224
2022-11-04T05:34:00.435Z,50.877213
2022-11-04T05:35:00.444Z,50.877270
2022-11-04T05:36:00.422Z,50.877293
2022-11-04T05:37:00.406Z,50.877308
2022-11-04T05:38:00.407Z,50.877316
2022-11-04T05:39:00.380Z,50.877262
2022-11-04T05:40:00.394Z,50.877213
2022-11-04T05:41:00.453Z,50.877232
2022-11-04T05:42:00.358Z,50.877197
2022-11-04T05:43:00.364Z,50.877296
2022-11-04T05:44:00.393Z,50.877342
2022-11-04T05:45:00.331Z,50.877331
2022-11-04T05:46:00.322Z,50.877266
2022-11-04T05:47:00.321Z,50.877201
2022-11-04T05:48:00.296Z,50.877213
2022-11-04T05:49:00.305Z,50.877171
2022-11-04T05:50:01.283Z,50.877224
2022-11-04T05:51:00.285Z,50.877197
2022-11-04T05:52:00.292Z,50.877220
2022-11-04T05:53:00.396Z,50.877178
2022-11-04T05:54:00.260Z,50.877178
2022-11-04T05:55:00.290Z,50.877148
2022-11-04T05:56:00.224Z,50.877151
2022-11-04T05:57:00.209Z,50.877220
2022-11-04T05:58:00.203Z,50.877182
2022-11-04T05:59:00.207Z,50.877209
2022-11-04T06:00:00.224Z,50.877193
2022-11-04T06:01:00.167Z,50.877178
2022-11-04T06:02:00.328Z,50.877220
2022-11-04T06:03:00.275Z,50.877193
2022-11-04T06:04:00.186Z,50.877220
2022-11-04T06:05:00.159Z,50.877197
2022-11-04T06:06:00.157Z,50.877216
2022-11-04T06:07:00.104Z,50.877190
2022-11-04T06:08:00.116Z,50.877186
2022-11-04T06:09:00.103Z,50.877190
2022-11-04T06:10:00.090Z,50.877193
2022-11-04T06:11:00.075Z,50.877171
2022-11-04T06:12:00.206Z,50.877174
2022-11-04T06:13:00.100Z,50.877220
2022-11-04T06:14:00.036Z,50.877216
2022-11-04T06:15:00.035Z,50.877163
2022-11-04T06:16:00.056Z,50.877201
2022-11-04T06:17:00.120Z,50.877155
2022-11-04T06:18:00.023Z,50.877178
2022-11-04T06:19:03.550Z,50.877171
2022-11-04T06:20:00.986Z,50.877182
2022-11-04T06:20:59.979Z,50.877186
2022-11-04T06:22:00.042Z,50.877216
2022-11-04T06:22:59.948Z,50.877213
2022-11-04T06:23:59.959Z,50.877213
2022-11-04T06:24:59.932Z,50.877243
2022-11-04T06:25:59.916Z,50.877251
2022-11-04T06:26:59.909Z,50.877178
2022-11-04T06:27:59.904Z,50.877178
2022-11-04T06:28:59.912Z,50.877201
2022-11-04T06:29:59.887Z,50.877190
2022-11-04T06:30:59.907Z,50.877171
2022-11-04T06:31:59.856Z,50.877228
2022-11-04T06:32:59.846Z,50.877243
2022-11-04T06:33:59.865Z,50.877186
2022-11-04T06:34:59.834Z,50.877197
2022-11-04T06:35:59.827Z,50.877171
2022-11-04T06:36:59.827Z,50.877171
2022-11-04T06:37:59.805Z,50.877197
2022-11-04T06:39:04.344Z,50.877220
2022-11-04T06:40:00.776Z,50.877228
2022-11-04T06:40:59.810Z,50.877136
2022-11-04T06:42:02.705Z,50.877144
2022-11-04T06:42:59.797Z,50.877193
2022-11-04T06:43:59.754Z,50.877300
2022-11-04T06:44:59.733Z,50.877266
2022-11-04T06:45:59.744Z,50.877274
2022-11-04T06:46:59.713Z,50.877285
2022-11-04T06:47:59.722Z,50.877201
2022-11-04T06:48:59.691Z,50.877228
2022-11-04T06:49:59.694Z,50.877125
2022-11-04T06:50:59.675Z,50.877167
2022-11-04T06:51:59.681Z,50.877197
2022-11-04T06:52:59.665Z,50.877228
2022-11-04T06:53:59.631Z,50.877213
2022-11-04T06:54:59.659Z,50.877155
2022-11-04T06:55:59.690Z,50.877209
2022-11-04T06:56:59.652Z,50.877174
2022-11-04T06:57:59.595Z,50.877216
2022-11-04T06:58:59.592Z,50.877193
2022-11-04T06:59:59.604Z,50.877121
2022-11-04T07:00:59.579Z,50.877193
2022-11-04T07:02:00.698Z,50.877174
2022-11-04T07:02:59.542Z,50.877132
2022-11-04T07:03:59.537Z,50.877151
2022-11-04T07:04:59.558Z,50.877171
2022-11-04T07:05:59.518Z,50.877106
2022-11-04T07:06:59.598Z,50.877224
2022-11-04T07:07:59.493Z,50.877186
2022-11-04T07:08:59.492Z,50.877205
2022-11-04T07:09:59.575Z,50.877193
2022-11-04T07:10:59.463Z,50.877216
2022-11-04T07:11:59.455Z,50.877174
2022-11-04T07:12:59.443Z,50.877216
2022-11-04T07:14:00.456Z,50.877228
2022-11-04T07:14:59.421Z,50.877220
2022-11-04T07:15:59.495Z,50.877155
2022-11-04T07:16:59.426Z,50.877151
2022-11-04T07:17:59.394Z,50.877201
2022-11-04T07:18:59.388Z,50.877159
2022-11-04T07:19:59.436Z,50.877216
2022-11-04T07:20:59.425Z,50.877197
2022-11-04T07:21:59.383Z,50.877213
2022-11-04T07:22:59.343Z,50.877216
2022-11-04T07:23:59.364Z,50.877216
2022-11-04T07:24:59.361Z,50.877239
2022-11-04T07:25:59.320Z,50.877220
2022-11-04T07:26:59.320Z,50.877182
2022-11-04T07:28:02.122Z,50.877205
2022-11-04T07:29:00.303Z,50.877209
2022-11-04T07:29:59.352Z,50.877228
2022-11-04T07:30:59.383Z,50.877224
2022-11-04T07:31:59.255Z,50.877186
2022-11-04T07:32:59.331Z,50.877220
2022-11-04T07:33:59.240Z,50.877186
2022-11-04T07:34:59.244Z,50.877228
2022-11-04T07:35:59.257Z,50.877209
2022-11-04T07:36:59.210Z,50.877190
2022-11-04T07:37:59.219Z,50.877182
2022-11-04T07:38:59.194Z,50.877186
2022-11-04T07:39:59.181Z,50.877243
2022-11-04T07:40:59.167Z,50.877144
2022-11-04T07:41:59.773Z,50.877224
2022-11-04T07:42:59.182Z,50.877251
2022-11-04T07:43:59.148Z,50.877251
2022-11-04T07:44:59.134Z,50.877193
2022-11-04T07:45:59.115Z,50.877258
2022-11-04T07:46:59.114Z,50.877232
2022-11-04T07:47:59.086Z,50.877213
2022-11-04T07:48:59.136Z,50.877235
2022-11-04T07:49:59.122Z,50.877205
2022-11-04T07:50:59.069Z,50.877136
2022-11-04T07:51:59.057Z,50.877136
2022-11-04T07:52:59.082Z,50.877190
2022-11-04T07:53:59.067Z,50.877235
2022-11-04T07:54:59.034Z,50.877216
2022-11-04T07:55:59.006Z,50.877140
2022-11-04T07:56:58.994Z,50.877129
2022-11-04T07:57:58.986Z,50.877205
2022-11-04T07:58:59.001Z,50.877209
2022-11-04T07:59:59.003Z,50.877186
2022-11-04T08:00:58.957Z,50.877151
2022-11-04T08:01:59.143Z,50.877171
2022-11-04T08:02:59.003Z,50.877205
2022-11-04T08:03:58.935Z,50.877197
2022-11-04T08:04:58.932Z,50.877224
2022-11-04T08:05:58.909Z,50.877193
2022-11-04T08:06:58.903Z,50.877186
2022-11-04T08:07:58.889Z,50.877159
2022-11-04T08:08:58.993Z,50.877174
2022-11-04T08:09:58.861Z,50.877193
2022-11-04T08:10:58.854Z,50.877197
2022-11-04T08:11:58.860Z,50.877224
2022-11-04T08:12:58.864Z,50.877205
2022-11-04T08:13:58.874Z,50.877205
2022-11-04T08:14:58.884Z,50.877167
2022-11-04T08:15:58.811Z,50.877197
2022-11-04T08:16:58.805Z,50.877201
2022-11-04T08:17:58.807Z,50.877213
2022-11-04T08:18:58.804Z,50.877201
2022-11-04T08:19:58.778Z,50.877174
2022-11-04T08:20:58.765Z,50.877193
2022-11-04T08:21:58.752Z,50.877213
2022-11-04T08:22:58.740Z,50.877205
2022-11-04T08:23:58.748Z,50.877201
2022-11-04T08:24:58.744Z,50.877235
2022-11-04T08:25:58.815Z,50.877216
2022-11-04T08:26:58.703Z,50.877201
2022-11-04T08:28:01.105Z,50.877205
2022-11-04T08:28:58.696Z,50.877163
2022-11-04T08:29:58.690Z,50.877178
2022-11-04T08:31:00.553Z,50.877224
2022-11-04T08:32:24.571Z,50.877247
2022-11-04T08:32:58.687Z,50.877247
2022-11-04T08:33:58.684Z,50.877232
2022-11-04T08:34:58.647Z,50.877201
2022-11-04T08:35:58.657Z,50.877201
2022-11-04T08:36:58.625Z,50.877167
2022-11-04T08:37:58.605Z,50.877182
2022-11-04T08:38:58.592Z,50.877186
2022-11-04T08:39:58.586Z,50.877178
2022-11-04T08:41:00.087Z,50.877186
2022-11-04T08:41:58.599Z,50.877182
2022-11-04T08:42:58.560Z,50.877205
2022-11-04T08:43:58.552Z,50.877216
2022-11-04T08:44:58.552Z,50.877171
2022-11-04T08:45:58.546Z,50.877106
2022-11-04T08:46:58.539Z,50.877121
2022-11-04T08:48:04.176Z,50.877113
2022-11-04T08:49:01.167Z,50.877132
2022-11-04T08:49:58.500Z,50.877136
2022-11-04T08:50:58.490Z,50.877155
2022-11-04T08:51:58.471Z,50.877205
2022-11-04T08:52:58.492Z,50.877148
2022-11-04T08:53:58.448Z,50.877163
2022-11-04T08:54:58.463Z,50.877178
2022-11-04T08:55:58.429Z,50.877167
2022-11-04T08:56:58.427Z,50.877163
2022-11-04T08:57:58.470Z,50.877151
2022-11-04T08:58:58.411Z,50.877163
2022-11-04T08:59:58.403Z,50.877254
2022-11-04T09:00:58.374Z,50.877251
2022-11-04T09:01:58.497Z,50.877201
2022-11-04T09:02:58.359Z,50.877224
2022-11-04T09:03:58.395Z,50.877224
2022-11-04T09:04:58.351Z,50.877270
2022-11-04T09:05:58.332Z,50.877182
2022-11-04T09:06:58.332Z,50.877155
2022-11-04T09:07:58.315Z,50.877197
2022-11-04T09:08:58.366Z,50.877197
2022-11-04T09:09:58.347Z,50.877186
2022-11-04T09:10:58.310Z,50.877090
2022-11-04T09:11:58.271Z,50.877098
2022-11-04T09:12:58.256Z,50.876942
2022-11-04T09:13:58.255Z,50.876892
2022-11-04T09:14:58.289Z,50.876877
2022-11-04T09:15:58.286Z,50.877018
2022-11-04T09:16:58.231Z,50.877132
2022-11-04T09:17:58.218Z,50.877140
2022-11-04T09:18:58.205Z,50.877090
2022-11-04T09:19:58.218Z,50.877041
2022-11-04T09:20:58.369Z,50.877151
2022-11-04T09:21:58.190Z,50.877193
2022-11-04T09:22:58.160Z,50.877182
2022-11-04T09:23:58.170Z,50.877151
2022-11-04T09:24:58.160Z,50.877117
2022-11-04T09:25:58.130Z,50.877167
2022-11-04T09:26:58.127Z,50.877163
2022-11-04T09:27:58.134Z,50.877148
2022-11-04T09:28:58.294Z,50.877151
2022-11-04T09:29:59.112Z,50.877178
2022-11-04T09:30:58.102Z,50.877159
2022-11-04T09:31:58.074Z,50.877163
2022-11-04T09:32:58.066Z,50.877167
2022-11-04T09:33:58.053Z,50.877155
2022-11-04T09:34:58.068Z,50.877155
2022-11-04T09:35:58.058Z,50.877151
2022-11-04T09:36:58.108Z,50.877155
2022-11-04T09:37:58.017Z,50.877171
2022-11-04T09:38:58.000Z,50.877129
2022-11-04T09:39:57.999Z,50.877163
2022-11-04T09:40:58.008Z,50.877186
2022-11-04T09:41:58.036Z,50.877167
2022-11-04T09:42:57.986Z,50.877163
2022-11-04T09:43:58.003Z,50.877197
2022-11-04T09:45:20.666Z,50.877190
2022-11-04T09:46:00.035Z,50.877178
2022-11-04T09:46:57.918Z,50.877178
2022-11-04T09:47:57.911Z,50.877186
2022-11-04T09:48:57.910Z,50.877163
2022-11-04T09:49:58.021Z,50.877163
2022-11-04T09:50:57.898Z,50.877113
2022-11-04T09:51:57.875Z,50.877129
2022-11-04T09:52:57.930Z,50.877151
2022-11-04T09:53:57.888Z,50.877167
2022-11-04T09:54:57.846Z,50.877197
2022-11-04T09:55:57.847Z,50.877224
2022-11-04T09:56:57.838Z,50.877171
2022-11-04T09:57:57.897Z,50.877171
2022-11-04T09:58:57.812Z,50.877140
2022-11-04T09:59:57.788Z,50.877144
2022-11-04T10:00:57.848Z,50.877159
2022-11-04T10:01:57.896Z,50.877144
2022-11-04T10:02:57.803Z,50.877159
2022-11-04T10:03:57.819Z,50.877163
2022-11-04T10:04:57.741Z,50.877331
2022-11-04T10:05:57.745Z,50.877228
2022-11-04T10:06:57.720Z,50.877102
2022-11-04T10:07:57.749Z,50.877098
2022-11-04T10:08:57.818Z,50.877155
2022-11-04T10:09:57.704Z,50.877151
2022-11-04T10:10:57.700Z,50.877167
2022-11-04T10:11:57.688Z,50.877190
2022-11-04T10:12:57.660Z,50.877190
2022-11-04T10:13:57.671Z,50.877190
2022-11-04T10:14:57.639Z,50.877186
2022-11-04T10:15:57.633Z,50.877216
2022-11-04T10:16:57.690Z,50.877197
2022-11-04T10:17:57.633Z,50.877182
2022-11-04T10:18:57.603Z,50.877186
2022-11-04T10:19:57.673Z,50.877193
2022-11-04T10:20:57.644Z,50.877224
2022-11-04T10:21:57.603Z,50.877224
2022-11-04T10:22:57.582Z,50.877216
2022-11-04T10:23:57.541Z,50.877209
2022-11-04T10:24:57.633Z,50.877193
2022-11-04T10:25:57.599Z,50.877201
2022-11-04T10:27:00.375Z,50.877216
2022-11-04T10:27:57.519Z,50.877213
2022-11-04T10:28:57.554Z,50.877140
2022-11-04T10:29:57.568Z,50.877151
2022-11-04T10:30:57.560Z,50.877167
2022-11-04T10:31:57.482Z,50.877151
2022-11-04T10:32:57.484Z,50.876995
2022-11-04T10:33:57.511Z,50.876923
2022-11-04T10:34:57.489Z,50.876968
2022-11-04T10:35:57.491Z,50.877064
2022-11-04T10:36:57.466Z,50.877056
2022-11-04T10:37:57.474Z,50.876995
2022-11-04T10:38:57.418Z,50.877014
2022-11-04T10:39:57.434Z,50.877060
2022-11-04T10:40:58.317Z,50.877075
2022-11-04T10:41:57.390Z,50.876995
2022-11-04T10:42:57.409Z,50.877079
2022-11-04T10:43:57.368Z,50.877140
2022-11-04T10:44:57.380Z,50.877129
2022-11-04T10:45:57.391Z,50.877140
2022-11-04T10:46:57.344Z,50.877117
2022-11-04T10:47:57.362Z,50.877064
2022-11-04T10:48:57.325Z,50.877087
2022-11-04T10:50:28.855Z,50.877064
2022-11-04T10:50:59.343Z,50.877132
2022-11-04T10:51:57.300Z,50.877213
2022-11-04T10:52:57.284Z,50.877209
2022-11-04T10:53:57.388Z,50.877159
2022-11-04T10:54:57.283Z,50.877193
2022-11-04T10:55:57.277Z,50.877182
2022-11-04T10:56:57.337Z,50.877163
2022-11-04T10:57:57.245Z,50.877151
2022-11-04T10:58:57.224Z,50.877117
2022-11-04T10:59:57.248Z,50.877087
2022-11-04T11:00:57.271Z,50.877148
2022-11-04T11:01:57.352Z,50.877140
2022-11-04T11:02:57.179Z,50.877136
2022-11-04T11:03:57.166Z,50.877300
2022-11-04T11:04:57.156Z,50.877300
2022-11-04T11:05:57.180Z,50.877300
2022-11-04T11:06:57.151Z,50.877300
2022-11-04T11:07:57.142Z,50.877705
2022-11-04T11:08:57.117Z,50.877583
2022-11-04T11:09:57.131Z,50.877560
2022-11-04T11:10:57.097Z,50.877476
2022-11-04T11:11:57.108Z,50.877243
2022-11-04T11:12:57.078Z,50.877167
2022-11-04T11:13:57.089Z,50.877163
2022-11-04T11:14:57.115Z,50.877159
2022-11-04T11:15:57.045Z,50.877132
2022-11-04T11:16:57.049Z,50.877132
2022-11-04T11:17:57.026Z,50.877155
2022-11-04T11:18:58.017Z,50.877167
2022-11-04T11:19:57.026Z,50.877163
2022-11-04T11:20:57.047Z,50.877186
2022-11-04T11:21:57.050Z,50.877251
2022-11-04T11:23:01.937Z,50.877197
2022-11-04T11:23:59.059Z,50.877148
2022-11-04T11:24:56.950Z,50.877163